Time;durP1;ratioP1;P1;durP2;ratioP2;P2;SDS_P1;SDS_P2;PMS_P1;PMS_P2;Temp;Humidity;BMP_temperature;BMP_pressure;BME280_temperature;BME280_humidity;BME280_pressure;Samples;Min_cycle;Max_cycle;Signal;HPM_P1;HPM_P2
2022/04/14 00:01:38;;;;;;;28.70;17.20;;;;;;;7.56;50.29;99355.70;105129;1271;68467;-75
2022/04/14 00:04:05;;;;;;;21.90;16.10;;;;;;;7.50;50.49;99357.05;105145;1271;73336;-76
2022/04/14 00:06:31;;;;;;;23.10;15.40;;;;;;;7.44;50.68;99356.98;105120;1271;60465;-77
2022/04/14 00:08:58;;;;;;;22.90;15.20;;;;;;;7.40;50.85;99361.09;105021;1271;60788;-78
2022/04/14 00:11:24;;;;;;;24.90;15.10;;;;;;;7.35;50.96;99355.29;105120;1271;60552;-79
2022/04/14 00:13:51;;;;;;;23.10;15.90;;;;;;;7.31;51.19;99353.39;105123;1271;69453;-78
2022/04/14 00:16:17;;;;;;;25.00;17.80;;;;;;;7.25;51.44;99354.16;105135;1271;73492;-79
2022/04/14 00:18:44;;;;;;;25.00;16.80;;;;;;;7.21;51.66;99355.77;105091;1271;60529;-79
2022/04/14 00:21:10;;;;;;;25.30;17.10;;;;;;;7.17;51.88;99356.85;105147;1271;60983;-78
2022/04/14 00:23:37;;;;;;;23.40;16.40;;;;;;;7.13;52.06;99354.60;105106;1271;60473;-78
2022/04/14 00:26:04;;;;;;;23.60;17.00;;;;;;;7.09;52.34;99352.48;105106;1271;70198;-77
2022/04/14 00:28:31;;;;;;;27.80;17.20;;;;;;;7.05;52.53;99351.23;105109;1271;72168;-78
2022/04/14 00:30:59;;;;;;;27.10;16.60;;;;;;;7.02;52.85;99352.09;105102;1271;60548;-78
2022/04/14 00:33:26;;;;;;;21.50;16.10;;;;;;;6.98;53.09;99351.90;105103;1271;60918;-76
2022/04/14 00:35:53;;;;;;;22.70;16.80;;;;;;;6.96;53.30;99347.75;105114;1271;74525;-77
2022/04/14 00:38:20;;;;;;;24.20;16.50;;;;;;;6.93;53.51;99346.86;105134;1271;69200;-77
2022/04/14 00:40:52;;;;;;;25.20;17.70;;;;;;;6.88;53.90;99345.48;105050;1271;72532;-78
2022/04/14 00:43:22;;;;;;;30.00;17.60;;;;;;;6.82;54.12;99344.89;105122;1271;60711;-78
2022/04/14 00:45:49;;;;;;;26.10;18.20;;;;;;;6.76;54.27;99346.75;105093;1271;61127;-77
2022/04/14 00:48:16;;;;;;;31.10;17.10;;;;;;;6.69;54.46;99346.70;105155;1271;74425;-79
2022/04/14 00:50:42;;;;;;;25.20;17.90;;;;;;;6.65;54.67;99352.76;105228;1271;70509;-77
2022/04/14 00:53:10;;;;;;;25.60;17.50;;;;;;;6.59;54.70;99354.23;105070;1274;60647;-76
2022/04/14 00:55:36;;;;;;;28.30;17.80;;;;;;;6.55;54.77;99351.91;105204;1271;60571;-80
2022/04/14 00:58:03;;;;;;;26.20;17.40;;;;;;;6.56;54.79;99350.30;105176;1271;60392;-80
2022/04/14 01:00:29;;;;;;;26.50;17.00;;;;;;;6.56;54.76;99346.58;105134;1271;60390;-79
2022/04/14 01:02:56;;;;;;;26.00;17.30;;;;;;;6.57;54.82;99345.46;105299;1271;70627;-79
2022/04/14 01:05:24;;;;;;;25.10;15.90;;;;;;;6.60;54.76;99347.48;105361;1271;73346;-76
2022/04/14 01:07:51;;;;;;;25.00;17.00;;;;;;;6.63;54.87;99349.66;105235;1271;60590;-77
2022/04/14 01:10:18;;;;;;;26.30;17.50;;;;;;;6.64;54.80;99350.28;106057;1271;60900;-77
2022/04/14 01:12:44;;;;;;;22.80;15.90;;;;;;;6.66;54.85;99350.92;106569;1271;75873;-76
2022/04/14 01:15:14;;;;;;;22.80;16.30;;;;;;;6.66;54.87;99348.65;106879;1271;69469;-78
2022/04/14 01:17:41;;;;;;;23.20;16.20;;;;;;;6.63;54.84;99348.75;106764;1271;74442;-78
2022/04/14 01:20:11;;;;;;;23.20;15.70;;;;;;;6.64;54.92;99351.91;106045;1271;60366;-79
2022/04/14 01:22:53;;;;;;;22.80;14.40;;;;;;;6.66;54.94;99348.98;105035;1272;61830;-79
2022/04/14 01:25:20;;;;;;;26.10;15.60;;;;;;;6.68;54.93;99348.00;105164;1271;74450;-78
2022/04/14 01:27:47;;;;;;;23.30;15.10;;;;;;;6.68;54.84;99344.28;105005;1271;60539;-77
2022/04/14 01:30:13;;;;;;;22.00;14.90;;;;;;;6.68;54.82;99344.98;105149;1271;73962;-77
2022/04/14 01:32:40;;;;;;;23.90;14.60;;;;;;;6.66;54.89;99346.48;105091;1271;60475;-77
2022/04/14 01:35:07;;;;;;;21.00;15.50;;;;;;;6.64;54.96;99346.42;105142;1271;60984;-78
2022/04/14 01:37:34;;;;;;;20.00;13.80;;;;;;;6.61;54.98;99346.17;104912;1272;74564;-77
2022/04/14 01:40:01;;;;;;;23.80;15.60;;;;;;;6.58;55.00;99348.60;105073;1271;70178;-78
2022/04/14 01:42:27;;;;;;;22.10;14.70;;;;;;;6.56;55.05;99345.14;105097;1271;74346;-77
2022/04/14 01:44:54;;;;;;;24.90;15.00;;;;;;;6.54;55.02;99344.75;105129;1271;60510;-76
2022/04/14 01:47:21;;;;;;;23.60;15.20;;;;;;;6.52;54.98;99346.79;105083;1271;60334;-78
2022/04/14 01:49:47;;;;;;;22.80;15.00;;;;;;;6.48;55.08;99343.42;105106;1271;74621;-79
2022/04/14 01:52:14;;;;;;;24.00;14.90;;;;;;;6.44;55.19;99343.08;105100;1271;67534;-78
2022/04/14 01:54:40;;;;;;;22.40;15.00;;;;;;;6.38;55.23;99343.68;105052;1271;73449;-78
2022/04/14 01:57:07;;;;;;;23.30;15.30;;;;;;;6.33;55.29;99346.23;105089;1271;60494;-78
2022/04/14 01:59:33;;;;;;;23.70;15.00;;;;;;;6.28;55.39;99348.88;105134;1271;60482;-77
2022/04/14 02:02:00;;;;;;;24.10;15.50;;;;;;;6.24;55.53;99343.42;105130;1271;60566;-77
2022/04/14 02:04:27;;;;;;;25.40;16.50;;;;;;;6.21;55.66;99347.77;105070;1271;67557;-77
2022/04/14 02:06:53;;;;;;;22.80;14.60;;;;;;;6.19;55.80;99347.51;105146;1271;60456;-77
2022/04/14 02:09:20;;;;;;;24.80;14.90;;;;;;;6.18;55.88;99356.59;105097;1271;60368;-78
2022/04/14 02:11:46;;;;;;;28.20;17.30;;;;;;;6.14;55.94;99352.65;105115;1271;60785;-77
2022/04/14 02:14:13;;;;;;;25.10;18.90;;;;;;;6.11;56.07;99352.98;105011;1274;60526;-77
2022/04/14 02:16:39;;;;;;;21.60;17.60;;;;;;;6.10;56.15;99351.09;105127;1271;60471;-77
2022/04/14 02:19:06;;;;;;;25.00;16.40;;;;;;;6.07;56.22;99351.02;104983;1271;74419;-78
2022/04/14 02:21:32;;;;;;;23.00;14.70;;;;;;;6.07;56.27;99350.14;104985;1271;60446;-77
2022/04/14 02:23:59;;;;;;;21.90;15.40;;;;;;;6.10;56.34;99346.33;104976;1271;60407;-79
2022/04/14 02:26:25;;;;;;;27.20;16.30;;;;;;;6.13;56.29;99344.04;105233;1271;60455;-77
2022/04/14 02:28:54;;;;;;;24.60;14.20;;;;;;;6.13;56.38;99348.81;105257;1275;60422;-78
2022/04/14 02:31:20;;;;;;;28.30;15.60;;;;;;;6.13;56.50;99348.67;104961;1271;73249;-77
2022/04/14 02:33:47;;;;;;;20.90;15.80;;;;;;;6.11;56.47;99350.84;105295;1271;60588;-77
2022/04/14 02:36:14;;;;;;;23.60;15.70;;;;;;;6.08;56.66;99350.11;105122;1271;61813;-78
2022/04/14 02:38:43;;;;;;;22.20;15.30;;;;;;;6.03;56.73;99345.72;105148;1271;60448;-77
2022/04/14 02:41:10;;;;;;;26.30;15.30;;;;;;;5.99;56.89;99346.24;105119;1271;69407;-77
2022/04/14 02:43:37;;;;;;;21.30;15.60;;;;;;;5.96;56.97;99343.04;105111;1271;60548;-77
2022/04/14 02:46:04;;;;;;;24.30;16.40;;;;;;;5.92;57.05;99338.77;105131;1271;60504;-76
2022/04/14 02:48:32;;;;;;;26.70;16.00;;;;;;;5.90;57.19;99337.27;105130;1271;60409;-77
2022/04/14 02:50:59;;;;;;;23.10;15.60;;;;;;;5.87;57.37;99334.92;105144;1271;74257;-77
2022/04/14 02:53:26;;;;;;;26.00;17.40;;;;;;;5.83;57.56;99332.96;105108;1271;70261;-77
2022/04/14 02:55:53;;;;;;;26.50;17.70;;;;;;;5.80;57.64;99335.21;105150;1271;73003;-79
2022/04/14 02:58:19;;;;;;;30.40;20.10;;;;;;;5.77;57.76;99337.83;105109;1271;60521;-78
2022/04/14 03:00:46;;;;;;;38.50;23.20;;;;;;;5.72;57.89;99342.21;105108;1271;60677;-75
2022/04/14 03:03:12;;;;;;;36.50;24.00;;;;;;;5.68;57.93;99340.29;105060;1271;60492;-78
2022/04/14 03:05:39;;;;;;;37.40;23.20;;;;;;;5.62;58.20;99334.54;105072;1271;60446;-78
2022/04/14 03:08:06;;;;;;;36.70;22.10;;;;;;;5.55;58.25;99332.74;104858;1271;60488;-78
2022/04/14 03:10:32;;;;;;;35.10;20.50;;;;;;;5.47;58.43;99334.29;105053;1271;60542;-79
2022/04/14 03:12:59;;;;;;;29.10;18.90;;;;;;;5.39;58.48;99334.09;105066;1271;61849;-77
2022/04/14 03:15:25;;;;;;;31.90;18.60;;;;;;;5.36;58.67;99334.39;105068;1271;60482;-77
2022/04/14 03:17:53;;;;;;;30.20;19.70;;;;;;;5.33;58.88;99333.09;105089;1271;69465;-76
2022/04/14 03:20:19;;;;;;;26.00;18.20;;;;;;;5.29;59.04;99338.00;105175;1271;73187;-80
2022/04/14 03:22:46;;;;;;;29.70;19.10;;;;;;;5.25;59.08;99332.16;105086;1271;60485;-77
2022/04/14 03:25:15;;;;;;;31.50;19.30;;;;;;;5.21;59.30;99334.11;105078;1271;60635;-76
2022/04/14 03:27:42;;;;;;;30.50;20.60;;;;;;;5.15;59.53;99334.15;105078;1271;74259;-78
2022/04/14 03:30:10;;;;;;;38.20;25.40;;;;;;;5.11;59.70;99332.57;105103;1271;70152;-77
2022/04/14 03:32:44;;;;;;;29.20;20.90;;;;;;;5.07;59.87;99333.38;105095;1271;74362;-75
2022/04/14 03:35:12;;;;;;;34.30;22.70;;;;;;;5.05;60.01;99331.73;104900;1271;60564;-78
2022/04/14 03:37:39;;;;;;;31.00;21.10;;;;;;;5.02;60.24;99328.84;105095;1271;61024;-78
2022/04/14 03:40:07;;;;;;;33.30;23.40;;;;;;;5.02;60.48;99329.56;105026;1271;74370;-77
2022/04/14 03:42:35;;;;;;;28.70;21.30;;;;;;;5.00;60.59;99329.11;105115;1271;69601;-78
2022/04/14 03:45:06;;;;;;;30.10;20.40;;;;;;;4.99;60.68;99327.39;105202;1271;74358;-77
2022/04/14 03:47:33;;;;;;;31.30;22.50;;;;;;;5.00;60.97;99323.48;105158;1271;60468;-78
2022/04/14 03:50:00;;;;;;;34.80;23.80;;;;;;;5.00;61.11;99326.46;105116;1271;60446;-78
2022/04/14 03:52:27;;;;;;;35.00;24.60;;;;;;;4.99;61.43;99327.01;105097;1271;75449;-77
2022/04/14 03:54:53;;;;;;;35.20;23.50;;;;;;;4.99;61.67;99326.13;105130;1271;69273;-77
2022/04/14 03:57:20;;;;;;;44.80;25.70;;;;;;;5.00;61.84;99324.85;105095;1271;60392;-79
2022/04/14 03:59:46;;;;;;;37.50;25.20;;;;;;;5.02;61.89;99326.02;105086;1271;60523;-79
2022/04/14 04:02:12;;;;;;;42.00;25.50;;;;;;;5.04;62.00;99328.08;104921;1274;60579;-77
2022/04/14 04:04:39;;;;;;;39.20;25.50;;;;;;;5.07;62.29;99327.41;105130;1271;60479;-77
2022/04/14 04:07:06;;;;;;;43.60;25.70;;;;;;;5.14;62.32;99330.84;104979;1271;70185;-77
2022/04/14 04:09:33;;;;;;;36.00;26.00;;;;;;;5.19;62.27;99329.08;105092;1271;73122;-78
2022/04/14 04:12:01;;;;;;;35.00;24.30;;;;;;;5.24;62.38;99328.00;105018;1272;60548;-74
2022/04/14 04:14:27;;;;;;;42.50;27.10;;;;;;;5.32;62.47;99329.09;105052;1271;60344;-75
2022/04/14 04:16:54;;;;;;;36.70;26.10;;;;;;;5.42;62.36;99331.50;105074;1271;75222;-75
2022/04/14 04:19:20;;;;;;;36.90;25.90;;;;;;;5.52;62.23;99327.01;105080;1271;60456;-75
2022/04/14 04:21:47;;;;;;;37.10;25.60;;;;;;;5.71;62.10;99327.86;105094;1271;60582;-75
2022/04/14 04:24:13;;;;;;;34.10;25.30;;;;;;;5.97;61.77;99329.39;105109;1271;60585;-75
2022/04/14 04:26:40;;;;;;;33.60;24.70;;;;;;;6.24;61.50;99330.55;105091;1271;60475;-77
2022/04/14 04:29:07;;;;;;;37.30;25.60;;;;;;;6.42;61.35;99334.52;105048;1271;75773;-76
2022/04/14 04:31:33;;;;;;;33.90;24.20;;;;;;;6.55;61.08;99337.09;104959;1271;69414;-76
2022/04/14 04:34:00;;;;;;;34.60;25.80;;;;;;;6.67;60.88;99335.51;105074;1271;60478;-76
2022/04/14 04:36:27;;;;;;;34.60;25.80;;;;;;;6.83;60.66;99336.35;104942;1271;60572;-75
2022/04/14 04:38:53;;;;;;;35.80;23.70;;;;;;;7.00;60.42;99335.94;105087;1271;60705;-76
2022/04/14 04:41:20;;;;;;;36.10;24.80;;;;;;;7.17;60.11;99335.13;105125;1271;60485;-76
2022/04/14 04:43:46;;;;;;;35.60;25.70;;;;;;;7.37;59.88;99330.12;105131;1271;60468;-76
2022/04/14 04:46:13;;;;;;;30.80;24.80;;;;;;;7.56;59.52;99328.84;104966;1271;60475;-75
2022/04/14 04:48:39;;;;;;;37.40;25.70;;;;;;;7.72;59.07;99330.14;105056;1271;60373;-74
2022/04/14 04:51:06;;;;;;;31.90;23.30;;;;;;;7.83;58.77;99330.11;105097;1271;60455;-73
2022/04/14 04:53:32;;;;;;;35.30;24.80;;;;;;;7.93;58.59;99327.13;105103;1271;60463;-74
2022/04/14 04:55:58;;;;;;;34.40;25.40;;;;;;;8.08;58.18;99321.77;105070;1271;60548;-74
2022/04/14 04:58:25;;;;;;;38.40;24.80;;;;;;;8.25;57.87;99317.02;105079;1271;60577;-75
2022/04/14 05:00:53;;;;;;;34.30;25.40;;;;;;;8.41;57.30;99320.79;104997;1271;60622;-74
2022/04/14 05:03:21;;;;;;;33.60;25.70;;;;;;;8.60;56.82;99316.43;104973;1271;61239;-76
2022/04/14 05:05:48;;;;;;;33.70;25.70;;;;;;;8.77;56.47;99316.75;105025;1271;74293;-75
2022/04/14 05:08:14;;;;;;;29.70;25.00;;;;;;;8.97;56.27;99313.71;105113;1271;69278;-74
2022/04/14 05:10:42;;;;;;;33.20;26.20;;;;;;;9.17;55.87;99308.91;105091;1271;60452;-74
2022/04/14 05:13:08;;;;;;;36.50;26.20;;;;;;;9.40;55.28;99308.30;105072;1271;60378;-74
2022/04/14 05:15:36;;;;;;;30.90;25.20;;;;;;;9.56;54.97;99306.84;105070;1271;60364;-73
2022/04/14 05:18:02;;;;;;;30.20;23.90;;;;;;;9.73;54.71;99308.88;105009;1271;72475;-73
2022/04/14 05:20:29;;;;;;;29.00;23.50;;;;;;;9.90;54.50;99307.85;105089;1271;60558;-74
2022/04/14 05:22:56;;;;;;;30.70;23.80;;;;;;;10.01;54.02;99307.57;105076;1271;73196;-74
2022/04/14 05:25:22;;;;;;;28.00;22.80;;;;;;;9.96;54.00;99310.90;105061;1271;60836;-73
2022/04/14 05:27:49;;;;;;;30.40;23.90;;;;;;;9.90;54.01;99310.84;105082;1271;61084;-73
2022/04/14 05:30:16;;;;;;;33.00;25.00;;;;;;;9.78;53.71;99308.05;105073;1271;74347;-73
2022/04/14 05:32:42;;;;;;;33.40;24.60;;;;;;;9.60;54.03;99309.23;104946;1271;67369;-73
2022/04/14 05:35:10;;;;;;;32.80;24.20;;;;;;;9.48;54.13;99313.50;105067;1271;74330;-73
2022/04/14 05:37:37;;;;;;;31.00;25.00;;;;;;;9.39;54.31;99309.23;105063;1271;60593;-73
2022/04/14 05:40:05;;;;;;;31.50;24.20;;;;;;;9.40;54.42;99315.39;105053;1271;60341;-74
2022/04/14 05:42:32;;;;;;;29.70;24.60;;;;;;;9.48;54.37;99315.82;105106;1271;75393;-73
2022/04/14 05:44:59;;;;;;;31.60;25.10;;;;;;;9.60;54.25;99319.02;104984;1274;68936;-73
2022/04/14 05:47:25;;;;;;;29.30;23.80;;;;;;;9.90;53.99;99320.46;105111;1271;74359;-74
2022/04/14 05:49:53;;;;;;;31.80;24.90;;;;;;;10.23;53.30;99323.48;105052;1271;60564;-74
2022/04/14 05:52:20;;;;;;;38.70;30.70;;;;;;;10.50;52.98;99327.89;105079;1271;60768;-74
2022/04/14 05:54:48;;;;;;;35.20;26.90;;;;;;;10.79;52.65;99330.19;105076;1271;75525;-73
2022/04/14 05:57:15;;;;;;;31.50;25.10;;;;;;;11.11;52.38;99328.52;105425;1271;70323;-74
2022/04/14 05:59:42;;;;;;;28.60;22.70;;;;;;;11.47;51.94;99326.38;105136;1271;73146;-73
2022/04/14 06:02:09;;;;;;;26.20;23.10;;;;;;;11.76;51.19;99324.13;105001;1271;60460;-75
2022/04/14 06:04:36;;;;;;;29.90;23.40;;;;;;;12.01;50.91;99329.80;105576;1271;60941;-71
2022/04/14 06:07:03;;;;;;;26.90;23.40;;;;;;;12.27;50.57;99325.36;104527;1271;73877;-72
2022/04/14 06:09:29;;;;;;;29.40;23.90;;;;;;;12.49;50.25;99324.40;104612;1274;69306;-71
2022/04/14 06:11:56;;;;;;;30.00;23.80;;;;;;;12.67;50.16;99319.14;104646;1274;74263;-71
2022/04/14 06:14:23;;;;;;;29.30;22.60;;;;;;;12.89;49.60;99320.82;104590;1274;60457;-73
2022/04/14 06:16:49;;;;;;;29.10;23.30;;;;;;;13.08;49.47;99320.36;105185;1273;60576;-71
2022/04/14 06:19:16;;;;;;;32.70;24.80;;;;;;;13.21;49.20;99319.81;104970;1273;75085;-87
2022/04/14 06:21:42;;;;;;;38.80;27.80;;;;;;;13.35;48.84;99315.61;105429;1274;67432;-77
2022/04/14 06:24:09;;;;;;;27.60;22.80;;;;;;;13.41;48.60;99315.88;105180;1274;60774;-79
2022/04/14 06:26:36;;;;;;;26.30;22.90;;;;;;;13.43;48.63;99312.88;105137;1271;60408;-74
2022/04/14 06:29:02;;;;;;;26.00;22.00;;;;;;;13.55;48.30;99310.21;105111;1269;62299;-73
2022/04/14 06:31:29;;;;;;;25.20;21.20;;;;;;;13.62;48.08;99312.19;105144;1271;75530;-74
2022/04/14 06:33:55;;;;;;;30.20;21.70;;;;;;;13.71;47.84;99310.46;105119;1271;60453;-72
2022/04/14 06:36:22;;;;;;;32.60;22.30;;;;;;;13.75;47.70;99311.38;105094;1271;60395;-72
2022/04/14 06:38:48;;;;;;;24.90;21.50;;;;;;;13.75;47.59;99312.77;105112;1271;60501;-74
2022/04/14 06:41:15;;;;;;;26.20;21.40;;;;;;;13.78;47.53;99311.30;105149;1271;60594;-72
2022/04/14 06:43:41;;;;;;;33.10;23.10;;;;;;;13.80;47.60;99305.97;104769;1271;60504;-72
2022/04/14 06:46:08;;;;;;;28.80;22.00;;;;;;;13.68;47.56;99305.69;104836;1271;60501;-74
2022/04/14 06:48:34;;;;;;;30.90;23.10;;;;;;;13.50;47.73;99312.89;105113;1271;60457;-74
2022/04/14 06:51:01;;;;;;;27.60;22.00;;;;;;;13.32;47.91;99309.55;105163;1271;60519;-72
2022/04/14 06:53:28;;;;;;;29.70;23.90;;;;;;;13.25;48.13;99312.56;104666;1271;59595;-73
2022/04/14 06:55:54;;;;;;;31.60;23.10;;;;;;;13.25;48.61;99311.98;104926;1271;60392;-73
2022/04/14 06:58:21;;;;;;;30.40;21.80;;;;;;;13.27;48.79;99309.60;104887;1271;69191;-73
2022/04/14 07:00:47;;;;;;;27.40;22.60;;;;;;;13.27;49.00;99309.04;104767;1271;73395;-72
2022/04/14 07:03:14;;;;;;;27.50;23.00;;;;;;;13.27;48.84;99308.69;104738;1271;60465;-73
2022/04/14 07:05:40;;;;;;;28.10;22.20;;;;;;;13.26;48.86;99310.55;105153;1271;62284;-71
2022/04/14 07:08:07;;;;;;;28.80;20.70;;;;;;;13.28;49.03;99310.59;105151;1271;60475;-73
2022/04/14 07:10:33;;;;;;;28.80;20.60;;;;;;;13.32;48.97;99308.50;105100;1271;60558;-72
2022/04/14 07:13:00;;;;;;;24.80;20.20;;;;;;;13.36;49.20;99305.51;105746;1271;72629;-73
2022/04/14 07:15:26;;;;;;;27.50;19.90;;;;;;;13.44;49.23;99297.11;105474;1271;60587;-73
2022/04/14 07:17:53;;;;;;;25.90;21.80;;;;;;;13.49;49.28;99299.00;105611;1271;60561;-72
2022/04/14 07:20:19;;;;;;;25.00;20.40;;;;;;;13.54;49.14;99298.48;105354;1271;60572;-70
2022/04/14 07:22:49;;;;;;;24.70;20.20;;;;;;;13.60;49.00;99298.38;105325;1271;67305;-74
2022/04/14 07:25:16;;;;;;;24.90;19.70;;;;;;;13.68;49.10;99296.72;105155;1271;74522;-76
2022/04/14 07:27:44;;;;;;;26.30;20.30;;;;;;;13.76;48.96;99295.73;105053;1271;60504;-73
2022/04/14 07:30:11;;;;;;;26.50;20.20;;;;;;;13.84;48.95;99298.92;105095;1271;60450;-73
2022/04/14 07:32:40;;;;;;;24.50;19.00;;;;;;;13.88;49.00;99300.60;105157;1271;72890;-73
2022/04/14 07:35:08;;;;;;;29.00;20.40;;;;;;;13.95;48.93;99304.84;105282;1271;69008;-76
2022/04/14 07:37:36;;;;;;;25.50;20.10;;;;;;;14.06;48.96;99301.86;104774;1271;71575;-73
2022/04/14 07:40:05;;;;;;;23.40;20.10;;;;;;;14.18;49.05;99302.98;104691;1271;60569;-73
2022/04/14 07:42:37;;;;;;;23.30;18.70;;;;;;;14.28;48.87;99304.10;105147;1271;61819;-73
2022/04/14 07:45:05;;;;;;;26.20;18.80;;;;;;;14.38;48.60;99303.16;105156;1271;75593;-74
2022/04/14 07:47:32;;;;;;;22.70;17.10;;;;;;;14.45;48.56;99306.03;105118;1271;70524;-72
2022/04/14 07:49:58;;;;;;;20.00;17.30;;;;;;;14.55;48.61;99305.14;105145;1271;73705;-75
2022/04/14 07:52:25;;;;;;;26.40;18.40;;;;;;;14.67;48.58;99307.55;105137;1271;60571;-73
2022/04/14 07:54:51;;;;;;;22.50;17.60;;;;;;;14.80;48.49;99304.77;105113;1271;60345;-74
2022/04/14 07:57:18;;;;;;;20.00;16.40;;;;;;;14.94;48.20;99304.70;104943;1271;60465;-73
2022/04/14 07:59:44;;;;;;;22.20;17.60;;;;;;;15.01;47.93;99302.49;105152;1271;60786;-74
2022/04/14 08:02:11;;;;;;;23.10;17.20;;;;;;;15.09;48.15;99301.17;105116;1271;72215;-72
2022/04/14 08:04:38;;;;;;;23.70;18.00;;;;;;;15.20;47.97;99299.95;104976;1271;60456;-72
2022/04/14 08:07:05;;;;;;;22.40;16.40;;;;;;;15.29;47.58;99295.95;105029;1271;60870;-73
2022/04/14 08:09:31;;;;;;;21.20;17.00;;;;;;;15.37;47.71;99291.52;104763;1271;73991;-72
2022/04/14 08:11:58;;;;;;;23.50;18.30;;;;;;;15.49;47.63;99293.43;104993;1271;60895;-73
2022/04/14 08:14:24;;;;;;;22.10;17.70;;;;;;;15.59;47.81;99293.33;105151;1270;60507;-71
2022/04/14 08:16:51;;;;;;;26.40;18.80;;;;;;;15.67;47.69;99292.48;104835;1271;60390;-72
2022/04/14 08:19:17;;;;;;;20.40;17.00;;;;;;;15.78;48.11;99291.42;104833;1271;60344;-73
2022/04/14 08:21:45;;;;;;;22.10;17.90;;;;;;;15.94;47.79;99292.08;105121;1271;60386;-74
2022/04/14 08:24:12;;;;;;;20.90;16.90;;;;;;;16.06;47.46;99288.20;105077;1271;70426;-74
2022/04/14 08:26:39;;;;;;;21.90;15.90;;;;;;;16.14;47.17;99292.64;105091;1271;73463;-74
2022/04/14 08:29:05;;;;;;;20.90;16.50;;;;;;;16.26;47.22;99286.83;104716;1271;60542;-73
2022/04/14 08:31:33;;;;;;;19.60;17.00;;;;;;;16.36;46.86;99285.61;104751;1271;61294;-74
2022/04/14 08:34:03;;;;;;;20.50;16.20;;;;;;;16.47;46.45;99281.78;105103;1271;74479;-74
2022/04/14 08:36:30;;;;;;;20.10;15.60;;;;;;;16.55;46.07;99284.33;105139;1271;69471;-74
2022/04/14 08:38:57;;;;;;;23.10;16.70;;;;;;;16.65;46.01;99286.10;105163;1271;73862;-74
2022/04/14 08:41:29;;;;;;;16.10;12.90;;;;;;;16.80;46.37;99286.95;104929;1271;60521;-72
2022/04/14 08:44:01;;;;;;;15.20;10.80;;;;;;;17.01;46.38;99286.23;104960;1271;60527;-73
2022/04/14 08:46:28;;;;;;;16.40;12.30;;;;;;;17.18;45.64;99284.38;105192;1271;73818;-72
2022/04/14 08:48:57;;;;;;;12.20;10.90;;;;;;;17.27;44.90;99278.33;105158;1271;69446;-75
2022/04/14 08:51:27;;;;;;;16.20;12.50;;;;;;;17.39;44.99;99279.94;105206;1271;74599;-76
2022/04/14 08:53:54;;;;;;;15.50;11.20;;;;;;;17.51;43.97;99273.09;105215;1271;60869;-70
2022/04/14 08:56:22;;;;;;;13.80;9.90;;;;;;;17.61;43.66;99273.13;105188;1271;61264;-75
2022/04/14 08:58:50;;;;;;;13.70;9.90;;;;;;;17.72;43.05;99270.85;105140;1271;74733;-73
2022/04/14 09:01:16;;;;;;;13.10;10.50;;;;;;;17.81;42.71;99267.48;105287;1271;68941;-74
2022/04/14 09:03:43;;;;;;;12.10;9.10;;;;;;;17.94;42.76;99263.61;105105;1271;74413;-75
2022/04/14 09:06:09;;;;;;;10.20;8.00;;;;;;;18.09;42.51;99264.52;105058;1271;60501;-75
2022/04/14 09:08:36;;;;;;;11.00;8.40;;;;;;;18.19;42.03;99259.26;105106;1271;62051;-73
2022/04/14 09:11:03;;;;;;;11.10;9.50;;;;;;;18.33;42.20;99257.92;105161;1271;74364;-74
2022/04/14 09:13:30;;;;;;;12.20;9.70;;;;;;;18.48;42.16;99259.44;105165;1268;70442;-73
2022/04/14 09:15:57;;;;;;;13.30;10.60;;;;;;;18.60;42.06;99256.22;105047;1271;72614;-73
2022/04/14 09:18:23;;;;;;;13.70;9.80;;;;;;;18.68;41.36;99255.36;105146;1271;60476;-73
2022/04/14 09:21:05;;;;;;;13.80;9.70;;;;;;;18.68;40.85;99252.30;105090;1271;60502;-73
2022/04/14 09:23:32;;;;;;;12.50;9.70;;;;;;;18.78;41.35;99250.74;104781;1271;74778;-73
2022/04/14 09:26:11;;;;;;;11.30;10.10;;;;;;;18.86;41.20;99246.02;105133;1270;70325;-73
2022/04/14 09:28:40;;;;;;;13.90;10.80;;;;;;;18.95;40.92;99237.94;105009;1271;74324;-75
2022/04/14 09:31:11;;;;;;;13.40;10.50;;;;;;;19.02;40.86;99237.50;105183;1271;60508;-74
2022/04/14 09:33:46;;;;;;;14.30;10.90;;;;;;;19.02;40.06;99236.73;105136;1271;60902;-73
2022/04/14 09:36:18;;;;;;;13.00;10.40;;;;;;;19.03;40.46;99234.98;105134;1271;74617;-74
2022/04/14 09:38:52;;;;;;;12.50;10.20;;;;;;;19.16;40.82;99228.52;104815;1271;69472;-74
2022/04/14 09:41:39;;;;;;;12.80;10.00;;;;;;;19.31;40.70;99222.57;105136;1271;74033;-73
2022/04/14 09:44:08;;;;;;;11.50;10.10;;;;;;;19.41;40.70;99219.73;105083;1271;60501;-74
2022/04/14 09:46:42;;;;;;;14.40;10.30;;;;;;;19.47;40.64;99215.73;105092;1271;61938;-73
2022/04/14 09:49:11;;;;;;;11.60;10.00;;;;;;;19.56;40.82;99217.45;104645;1271;74484;-72
2022/04/14 09:51:43;;;;;;;15.00;10.60;;;;;;;19.67;40.26;99212.26;104868;1271;69425;-71
2022/04/14 09:54:18;;;;;;;11.40;9.70;;;;;;;19.74;40.10;99208.09;104888;1271;73821;-74
2022/04/14 09:56:53;;;;;;;10.50;9.20;;;;;;;19.86;39.57;99205.13;105159;1271;60488;-73
2022/04/14 09:59:25;;;;;;;11.00;9.30;;;;;;;19.94;39.81;99202.48;105092;1271;60955;-75
2022/04/14 10:02:14;;;;;;;8.90;8.00;;;;;;;20.02;39.79;99202.06;105181;1271;74540;-72
2022/04/14 10:04:45;;;;;;;10.70;8.80;;;;;;;20.10;39.50;99199.05;104926;1273;69499;-72
2022/04/14 10:07:19;;;;;;;11.00;8.80;;;;;;;20.14;39.15;99200.93;104787;1271;72727;-73
2022/04/14 10:09:48;;;;;;;10.60;7.30;;;;;;;20.16;39.05;99202.30;105173;1271;60603;-74
2022/04/14 10:12:17;;;;;;;11.60;8.10;;;;;;;20.23;39.02;99192.30;105130;1271;60586;-73
2022/04/14 10:15:07;;;;;;;10.60;7.70;;;;;;;20.28;38.86;99189.25;104732;1271;75770;-72
2022/04/14 10:17:38;;;;;;;8.60;7.70;;;;;;;20.30;38.44;99191.71;105140;1270;69212;-72
2022/04/14 10:20:10;;;;;;;9.30;7.60;;;;;;;20.32;38.37;99189.55;104998;1271;73484;-69
2022/04/14 10:22:38;;;;;;;10.50;7.60;;;;;;;20.35;38.49;99189.71;105159;1271;60568;-74
2022/04/14 10:25:05;;;;;;;14.80;7.80;;;;;;;20.36;37.87;99186.97;104986;1271;60436;-72
2022/04/14 10:27:36;;;;;;;10.50;7.80;;;;;;;20.33;37.17;99182.35;104835;1271;74406;-73
2022/04/14 10:30:04;;;;;;;8.60;6.30;;;;;;;20.32;37.22;99175.75;105106;1271;69606;-72
2022/04/14 10:32:30;;;;;;;7.90;6.20;;;;;;;20.37;37.27;99173.06;104695;1271;72149;-73
2022/04/14 10:34:59;;;;;;;7.60;6.00;;;;;;;20.43;37.20;99170.39;104733;1271;60475;-73
2022/04/14 10:37:33;;;;;;;8.70;6.60;;;;;;;20.45;36.80;99166.34;104775;1271;61835;-73
2022/04/14 10:40:00;;;;;;;8.70;6.80;;;;;;;20.49;36.82;99166.86;104706;1271;75461;-72
2022/04/14 10:42:28;;;;;;;8.40;6.20;;;;;;;20.50;35.79;99164.20;104714;1271;69805;-74
2022/04/14 10:44:56;;;;;;;7.80;7.00;;;;;;;20.49;35.51;99159.21;105127;1271;73708;-72
2022/04/14 10:47:52;;;;;;;7.80;6.30;;;;;;;20.53;35.36;99155.16;105119;1271;60479;-75
2022/04/14 10:50:28;;;;;;;7.50;6.50;;;;;;;20.61;35.35;99151.65;104798;1271;61049;-73
2022/04/14 10:53:03;;;;;;;7.00;5.20;;;;;;;20.70;35.19;99150.02;105095;1271;75581;-73
2022/04/14 10:55:43;;;;;;;8.30;6.00;;;;;;;20.74;35.23;99146.90;105171;1271;68323;-73
2022/04/14 10:58:28;;;;;;;8.10;5.70;;;;;;;20.77;34.61;99148.30;105153;1271;73284;-73
2022/04/14 11:00:56;;;;;;;6.90;5.80;;;;;;;20.77;35.18;99143.48;104852;1270;60895;-73
2022/04/14 11:03:45;;;;;;;7.10;5.90;;;;;;;20.86;34.96;99148.12;104886;1271;61016;-71
2022/04/14 11:06:40;;;;;;;8.10;6.60;;;;;;;20.93;34.58;99141.91;104694;1271;74359;-73
2022/04/14 11:09:08;;;;;;;7.20;6.50;;;;;;;20.86;33.64;99140.50;105110;1271;69219;-74
2022/04/14 11:12:00;;;;;;;6.40;5.70;;;;;;;20.85;33.43;99137.73;104953;1271;73869;-72
2022/04/14 11:14:27;;;;;;;6.50;5.70;;;;;;;20.96;34.11;99134.77;105098;1271;60517;-73
2022/04/14 11:16:54;;;;;;;8.80;5.30;;;;;;;21.08;34.36;99135.64;105174;1270;61872;-72
2022/04/14 11:19:21;;;;;;;6.10;5.40;;;;;;;21.20;34.04;99140.13;105051;1271;74410;-74